sensor_id;sensor_type;location;lat;lon;timestamp;P1;durP1;ratioP1;P2;durP2;ratioP2
25687;SDS011;17407;51.120;3.702;2022-10-16T06:08:32;5.80;;;2.65;;
25687;SDS011;17407;51.120;3.702;2022-10-16T06:11:04;5.78;;;2.75;;
25687;SDS011;17407;51.120;3.702;2022-10-16T06:13:32;5.30;;;2.65;;
25687;SDS011;17407;51.120;3.702;2022-10-16T06:15:58;3.38;;;2.33;;
25687;SDS011;17407;51.120;3.702;2022-10-16T06:18:26;3.13;;;2.03;;
25687;SDS011;17407;51.120;3.702;2022-10-16T06:20:53;5.72;;;1.85;;
25687;SDS011;17407;51.120;3.702;2022-10-16T06:23:19;3.15;;;1.58;;
25687;SDS011;17407;51.120;3.702;2022-10-16T06:25:44;5.78;;;2.17;;
25687;SDS011;17407;51.120;3.702;2022-10-16T06:28:10;4.47;;;2.15;;
25687;SDS011;17407;51.120;3.702;2022-10-16T06:30:36;2.97;;;2.10;;
25687;SDS011;17407;51.120;3.702;2022-10-16T06:33:01;4.82;;;1.70;;
25687;SDS011;17407;51.120;3.702;2022-10-16T06:35:27;4.15;;;2.10;;
25687;SDS011;17407;51.120;3.702;2022-10-16T06:37:54;6.10;;;1.80;;
25687;SDS011;17407;51.120;3.702;2022-10-16T06:40:19;5.38;;;2.08;;
25687;SDS011;17407;51.120;3.702;2022-10-16T07:17:46;4.38;;;2.08;;
25687;SDS011;17407;51.120;3.702;2022-10-16T07:21:02;5.25;;;2.95;;
25687;SDS011;17407;51.120;3.702;2022-10-16T07:24:13;3.28;;;1.88;;
25687;SDS011;17407;51.120;3.702;2022-10-16T07:27:23;7.55;;;2.50;;
25687;SDS011;17407;51.120;3.702;2022-10-16T07:30:34;7.95;;;2.20;;
25687;SDS011;17407;51.120;3.702;2022-10-16T07:33:44;3.63;;;2.28;;
25687;SDS011;17407;51.120;3.702;2022-10-16T07:36:53;11.77;;;2.80;;
25687;SDS011;17407;51.120;3.702;2022-10-16T07:40:03;4.45;;;2.03;;
25687;SDS011;17407;51.120;3.702;2022-10-16T07:43:13;5.30;;;2.40;;
25687;SDS011;17407;51.120;3.702;2022-10-16T07:46:23;6.25;;;2.78;;
25687;SDS011;17407;51.120;3.702;2022-10-16T07:49:33;7.72;;;2.83;;
25687;SDS011;17407;51.120;3.702;2022-10-16T07:52:42;9.15;;;2.83;;
25687;SDS011;17407;51.120;3.702;2022-10-16T07:55:51;5.05;;;2.58;;
25687;SDS011;17407;51.120;3.702;2022-10-16T07:59:01;4.88;;;2.60;;
25687;SDS011;17407;51.120;3.702;2022-10-16T08:02:11;5.78;;;2.45;;
25687;SDS011;17407;51.120;3.702;2022-10-16T08:05:35;6.13;;;2.67;;
25687;SDS011;17407;51.120;3.702;2022-10-16T08:08:45;2.30;;;1.90;;
25687;SDS011;17407;51.120;3.702;2022-10-16T08:15:23;4.80;;;2.33;;
25687;SDS011;17407;51.120;3.702;2022-10-16T08:18:32;9.02;;;2.08;;
25687;SDS011;17407;51.120;3.702;2022-10-16T08:21:41;4.70;;;2.50;;
25687;SDS011;17407;51.120;3.702;2022-10-16T08:24:50;4.95;;;1.90;;
25687;SDS011;17407;51.120;3.702;2022-10-16T08:27:59;6.80;;;2.17;;
25687;SDS011;17407;51.120;3.702;2022-10-16T08:31:10;5.93;;;1.98;;
25687;SDS011;17407;51.120;3.702;2022-10-16T08:34:19;9.88;;;2.20;;
25687;SDS011;17407;51.120;3.702;2022-10-16T08:37:29;5.03;;;2.22;;
25687;SDS011;17407;51.120;3.702;2022-10-16T08:40:39;4.95;;;2.15;;
25687;SDS011;17407;51.120;3.702;2022-10-16T08:47:18;4.72;;;1.63;;
25687;SDS011;17407;51.120;3.702;2022-10-16T08:50:29;4.88;;;1.75;;
25687;SDS011;17407;51.120;3.702;2022-10-16T08:53:44;6.10;;;2.00;;
25687;SDS011;17407;51.120;3.702;2022-10-16T09:00:24;5.68;;;2.60;;
25687;SDS011;17407;51.120;3.702;2022-10-16T09:18:27;7.15;;;1.90;;
25687;SDS011;17407;51.120;3.702;2022-10-16T09:23:13;4.40;;;1.98;;
25687;SDS011;17407;51.120;3.702;2022-10-16T09:25:42;4.25;;;2.17;;
25687;SDS011;17407;51.120;3.702;2022-10-16T09:28:15;5.65;;;2.10;;
25687;SDS011;17407;51.120;3.702;2022-10-16T09:30:42;7.03;;;2.28;;
25687;SDS011;17407;51.120;3.702;2022-10-16T09:33:10;7.38;;;2.30;;
25687;SDS011;17407;51.120;3.702;2022-10-16T09:38:04;4.32;;;2.05;;
25687;SDS011;17407;51.120;3.702;2022-10-16T09:40:50;6.95;;;1.90;;
25687;SDS011;17407;51.120;3.702;2022-10-16T09:43:40;5.63;;;2.53;;
25687;SDS011;17407;51.120;3.702;2022-10-16T10:10:37;7.45;;;2.60;;
25687;SDS011;17407;51.120;3.702;2022-10-16T10:13:48;9.77;;;2.77;;
25687;SDS011;17407;51.120;3.702;2022-10-16T10:20:29;7.68;;;2.83;;
25687;SDS011;17407;51.120;3.702;2022-10-16T10:23:39;9.40;;;2.80;;
25687;SDS011;17407;51.120;3.702;2022-10-16T10:26:50;14.38;;;3.83;;
25687;SDS011;17407;51.120;3.702;2022-10-16T10:39:43;10.40;;;3.70;;
25687;SDS011;17407;51.120;3.702;2022-10-16T10:46:18;8.85;;;2.65;;
25687;SDS011;17407;51.120;3.702;2022-10-16T11:03:06;7.15;;;2.60;;
25687;SDS011;17407;51.120;3.702;2022-10-16T11:06:32;12.50;;;2.92;;
25687;SDS011;17407;51.120;3.702;2022-10-16T11:09:44;13.20;;;3.05;;
25687;SDS011;17407;51.120;3.702;2022-10-16T11:12:57;9.55;;;2.72;;
25687;SDS011;17407;51.120;3.702;2022-10-16T11:16:27;12.68;;;2.90;;
25687;SDS011;17407;51.120;3.702;2022-10-16T11:19:44;12.25;;;2.95;;
25687;SDS011;17407;51.120;3.702;2022-10-16T11:23:02;7.63;;;2.85;;
25687;SDS011;17407;51.120;3.702;2022-10-16T11:26:16;8.68;;;2.63;;
25687;SDS011;17407;51.120;3.702;2022-10-16T11:29:29;9.48;;;2.58;;
25687;SDS011;17407;51.120;3.702;2022-10-16T11:32:50;11.00;;;2.60;;
25687;SDS011;17407;51.120;3.702;2022-10-16T11:39:28;10.75;;;2.60;;
25687;SDS011;17407;51.120;3.702;2022-10-16T11:42:40;7.05;;;2.25;;
25687;SDS011;17407;51.120;3.702;2022-10-16T11:45:53;10.65;;;2.70;;
25687;SDS011;17407;51.120;3.702;2022-10-16T11:49:12;11.45;;;2.88;;
25687;SDS011;17407;51.120;3.702;2022-10-16T11:52:28;12.80;;;2.15;;
25687;SDS011;17407;51.120;3.702;2022-10-16T11:59:13;10.98;;;2.13;;
25687;SDS011;17407;51.120;3.702;2022-10-16T12:09:15;9.88;;;2.65;;
25687;SDS011;17407;51.120;3.702;2022-10-16T12:15:44;7.43;;;1.92;;
25687;SDS011;17407;51.120;3.702;2022-10-16T12:19:11;6.90;;;2.20;;
25687;SDS011;17407;51.120;3.702;2022-10-16T12:22:21;10.85;;;2.70;;
25687;SDS011;17407;51.120;3.702;2022-10-16T12:25:31;6.40;;;1.90;;
25687;SDS011;17407;51.120;3.702;2022-10-16T12:28:42;9.60;;;2.10;;
25687;SDS011;17407;51.120;3.702;2022-10-16T12:31:51;10.00;;;2.10;;
25687;SDS011;17407;51.120;3.702;2022-10-16T12:35:01;7.68;;;2.13;;
25687;SDS011;17407;51.120;3.702;2022-10-16T12:38:26;6.40;;;1.90;;
25687;SDS011;17407;51.120;3.702;2022-10-16T12:41:37;5.05;;;2.15;;
25687;SDS011;17407;51.120;3.702;2022-10-16T12:44:47;11.95;;;2.17;;
25687;SDS011;17407;51.120;3.702;2022-10-16T12:54:37;5.28;;;1.92;;
25687;SDS011;17407;51.120;3.702;2022-10-16T12:57:58;7.22;;;1.77;;
25687;SDS011;17407;51.120;3.702;2022-10-16T13:01:18;4.57;;;1.80;;
25687;SDS011;17407;51.120;3.702;2022-10-16T13:18:32;4.93;;;1.55;;
25687;SDS011;17407;51.120;3.702;2022-10-16T13:21:50;6.55;;;1.80;;
25687;SDS011;17407;51.120;3.702;2022-10-16T13:25:08;6.13;;;1.50;;
25687;SDS011;17407;51.120;3.702;2022-10-16T13:28:27;7.47;;;1.58;;
25687;SDS011;17407;51.120;3.702;2022-10-16T13:31:37;2.33;;;1.52;;
25687;SDS011;17407;51.120;3.702;2022-10-16T13:34:48;7.15;;;1.63;;
25687;SDS011;17407;51.120;3.702;2022-10-16T13:41:14;6.30;;;1.73;;
25687;SDS011;17407;51.120;3.702;2022-10-16T13:44:24;2.97;;;1.42;;
25687;SDS011;17407;51.120;3.702;2022-10-16T13:47:33;5.72;;;1.80;;
25687;SDS011;17407;51.120;3.702;2022-10-16T13:57:40;7.72;;;2.00;;
25687;SDS011;17407;51.120;3.702;2022-10-16T14:00:57;5.05;;;1.80;;
25687;SDS011;17407;51.120;3.702;2022-10-16T17:48:39;9.47;;;4.47;;
25687;SDS011;17407;51.120;3.702;2022-10-16T17:51:07;5.15;;;4.00;;
25687;SDS011;17407;51.120;3.702;2022-10-16T17:57:32;7.50;;;4.43;;
25687;SDS011;17407;51.120;3.702;2022-10-16T18:08:50;7.50;;;4.38;;
25687;SDS011;17407;51.120;3.702;2022-10-16T18:11:16;8.35;;;4.30;;
25687;SDS011;17407;51.120;3.702;2022-10-16T18:13:43;8.25;;;5.10;;
25687;SDS011;17407;51.120;3.702;2022-10-16T18:16:10;16.35;;;5.30;;
25687;SDS011;17407;51.120;3.702;2022-10-16T18:18:38;7.43;;;4.72;;
25687;SDS011;17407;51.120;3.702;2022-10-16T18:21:06;8.90;;;4.85;;
25687;SDS011;17407;51.120;3.702;2022-10-16T18:23:33;7.80;;;3.90;;
25687;SDS011;17407;51.120;3.702;2022-10-16T18:26:00;7.55;;;3.60;;
25687;SDS011;17407;51.120;3.702;2022-10-16T18:29:11;3.75;;;2.97;;
25687;SDS011;17407;51.120;3.702;2022-10-16T19:19:58;6.93;;;3.60;;
25687;SDS011;17407;51.120;3.702;2022-10-16T19:23:07;4.82;;;3.17;;
25687;SDS011;17407;51.120;3.702;2022-10-16T19:26:17;4.03;;;3.13;;
25687;SDS011;17407;51.120;3.702;2022-10-16T19:29:26;4.38;;;3.28;;
25687;SDS011;17407;51.120;3.702;2022-10-16T19:32:37;7.25;;;4.57;;
25687;SDS011;17407;51.120;3.702;2022-10-16T19:35:47;7.35;;;4.25;;
25687;SDS011;17407;51.120;3.702;2022-10-16T19:38:58;5.57;;;4.00;;
25687;SDS011;17407;51.120;3.702;2022-10-16T19:42:08;7.85;;;4.90;;
25687;SDS011;17407;51.120;3.702;2022-10-16T19:45:17;8.20;;;4.47;;
25687;SDS011;17407;51.120;3.702;2022-10-16T19:48:27;7.45;;;4.63;;
25687;SDS011;17407;51.120;3.702;2022-10-16T19:51:37;11.82;;;4.72;;
25687;SDS011;17407;51.120;3.702;2022-10-16T19:54:46;6.25;;;4.35;;
25687;SDS011;17407;51.120;3.702;2022-10-16T19:57:56;6.03;;;4.43;;
25687;SDS011;17407;51.120;3.702;2022-10-16T20:01:06;7.75;;;4.22;;
25687;SDS011;17407;51.120;3.702;2022-10-16T21:25:07;8.48;;;7.38;;
25687;SDS011;17407;51.120;3.702;2022-10-16T21:27:36;8.63;;;6.60;;
25687;SDS011;17407;51.120;3.702;2022-10-16T22:57:38;15.30;;;11.55;;
25687;SDS011;17407;51.120;3.702;2022-10-16T23:00:48;20.70;;;12.00;;
25687;SDS011;17407;51.120;3.702;2022-10-16T23:03:39;18.58;;;11.07;;
25687;SDS011;17407;51.120;3.702;2022-10-16T23:06:05;13.00;;;10.57;;
25687;SDS011;17407;51.120;3.702;2022-10-16T23:08:30;16.40;;;10.38;;
25687;SDS011;17407;51.120;3.702;2022-10-16T23:10:56;13.90;;;10.63;;
25687;SDS011;17407;51.120;3.702;2022-10-16T23:13:24;15.80;;;10.20;;
